Time;durP1;ratioP1;P1;durP2;ratioP2;P2;SDS_P1;SDS_P2;PMS_P1;PMS_P2;Temp;Humidity;BMP_temperature;BMP_pressure;BME280_temperature;BME280_humidity;BME280_pressure;Samples;Min_cycle;Max_cycle;Signal;HPM_P1;HPM_P2
2023/12/05 00:01:44;;;;;;;20.25;9.95;;;3.10;99.90;;;;;;6186196;23;20352;-78
2023/12/05 00:04:10;;;;;;;27.02;11.50;;;3.10;99.90;;;;;;6184020;23;20079;-78
2023/12/05 00:06:37;;;;;;;22.20;10.35;;;3.10;99.90;;;;;;6185070;23;20005;-75
2023/12/05 00:09:03;;;;;;;22.15;10.95;;;3.10;99.90;;;;;;6182097;23;20009;-76
2023/12/05 00:11:29;;;;;;;23.63;11.13;;;3.20;99.90;;;;;;6183334;23;20040;-79
2023/12/05 00:13:55;;;;;;;21.67;10.77;;;3.20;99.90;;;;;;6182368;23;20095;-78
2023/12/05 00:16:20;;;;;;;20.33;10.55;;;3.10;99.90;;;;;;6185499;23;20009;-78
2023/12/05 00:18:49;;;;;;;17.27;9.80;;;3.10;99.90;;;;;;6182834;23;20017;-78
2023/12/05 00:21:16;;;;;;;20.60;10.20;;;3.10;99.90;;;;;;6184184;23;20036;-79
2023/12/05 00:23:41;;;;;;;22.23;10.80;;;3.10;99.90;;;;;;6182567;23;20070;-77
2023/12/05 00:26:07;;;;;;;20.30;10.73;;;3.10;99.90;;;;;;6183519;23;20029;-78
2023/12/05 00:28:32;;;;;;;21.17;10.35;;;3.10;99.90;;;;;;6184211;23;20017;-77
2023/12/05 00:30:58;;;;;;;19.38;10.45;;;3.10;99.90;;;;;;6185468;23;20028;-78
2023/12/05 00:33:24;;;;;;;22.35;11.10;;;3.10;99.90;;;;;;6184915;23;20213;-78
2023/12/05 00:35:49;;;;;;;21.85;10.73;;;3.10;99.90;;;;;;6184967;23;20009;-76
2023/12/05 00:38:15;;;;;;;22.63;11.00;;;3.20;99.90;;;;;;6182358;23;20013;-75
2023/12/05 00:40:40;;;;;;;22.63;11.05;;;3.10;99.90;;;;;;6182338;23;20041;-78
2023/12/05 00:43:06;;;;;;;23.42;11.38;;;3.20;99.90;;;;;;6182824;23;21331;-79
2023/12/05 00:45:31;;;;;;;24.00;11.07;;;3.20;99.90;;;;;;6184887;23;20012;-78
2023/12/05 00:47:57;;;;;;;24.17;10.30;;;3.10;99.90;;;;;;6184002;23;20020;-77
2023/12/05 00:50:23;;;;;;;21.40;10.65;;;3.20;99.90;;;;;;6181596;23;20036;-75
2023/12/05 00:52:48;;;;;;;23.40;10.90;;;3.20;99.90;;;;;;6182957;23;20358;-79
2023/12/05 00:55:14;;;;;;;19.75;10.40;;;3.10;99.90;;;;;;6186811;23;20060;-78
2023/12/05 00:57:40;;;;;;;24.33;11.45;;;3.20;99.90;;;;;;6182676;23;20036;-76
2023/12/05 01:00:09;;;;;;;23.58;10.68;;;3.10;99.90;;;;;;6182813;23;20013;-78
2023/12/05 01:02:35;;;;;;;20.30;9.63;;;3.10;99.90;;;;;;6186447;23;20005;-77
2023/12/05 01:05:02;;;;;;;22.02;10.13;;;3.10;99.90;;;;;;6182191;23;20466;-77
2023/12/05 01:07:28;;;;;;;28.67;11.23;;;3.10;99.90;;;;;;6183134;23;20023;-78
2023/12/05 01:09:53;;;;;;;23.52;11.95;;;3.10;99.90;;;;;;6180399;23;20021;-77
2023/12/05 01:12:19;;;;;;;24.58;11.68;;;3.10;99.90;;;;;;6179502;23;20039;-76
2023/12/05 01:14:44;;;;;;;23.65;12.05;;;3.20;99.90;;;;;;6182013;23;20013;-76
2023/12/05 01:17:10;;;;;;;23.98;10.85;;;3.10;99.90;;;;;;6183287;23;20363;-78
2023/12/05 01:19:37;;;;;;;24.50;11.95;;;3.10;99.90;;;;;;6186255;23;20009;-79
2023/12/05 01:22:03;;;;;;;23.98;11.13;;;3.10;99.90;;;;;;6182013;23;20048;-75
2023/12/05 01:24:29;;;;;;;22.63;11.38;;;3.20;99.90;;;;;;6185430;23;20025;-78
2023/12/05 01:26:54;;;;;;;23.55;11.10;;;3.10;99.90;;;;;;6183145;23;20017;-78
2023/12/05 01:29:20;;;;;;;22.95;10.30;;;3.10;99.90;;;;;;6181277;23;20005;-76
2023/12/05 01:31:46;;;;;;;23.80;10.60;;;3.10;99.90;;;;;;6182770;23;20009;-77
2023/12/05 01:34:11;;;;;;;21.15;9.93;;;3.10;99.90;;;;;;6183585;23;20058;-78
2023/12/05 01:36:37;;;;;;;21.17;10.52;;;3.10;99.90;;;;;;6185260;23;20009;-78
2023/12/05 01:39:02;;;;;;;21.77;10.82;;;3.00;99.90;;;;;;6184284;23;20013;-78
2023/12/05 01:41:28;;;;;;;21.45;10.07;;;3.00;99.90;;;;;;6182043;23;20009;-77
2023/12/05 01:43:54;;;;;;;21.23;10.02;;;3.00;99.90;;;;;;6180843;23;20016;-77
2023/12/05 01:46:20;;;;;;;20.35;10.07;;;3.00;99.90;;;;;;6178523;23;20005;-78
2023/12/05 01:48:47;;;;;;;25.45;11.80;;;3.00;99.90;;;;;;6177449;23;20760;-78
2023/12/05 01:51:14;;;;;;;24.85;11.40;;;3.00;99.90;;;;;;6178402;23;20494;-77
2023/12/05 01:53:42;;;;;;;19.17;9.32;;;3.10;99.90;;;;;;6179570;23;20073;-78
2023/12/05 01:56:10;;;;;;;20.40;9.90;;;3.10;99.90;;;;;;6180589;23;20021;-79
2023/12/05 01:58:37;;;;;;;20.63;9.88;;;3.10;99.90;;;;;;6179341;23;20009;-77
2023/12/05 02:01:04;;;;;;;20.23;9.90;;;3.10;99.90;;;;;;6178624;23;20103;-77
2023/12/05 02:03:31;;;;;;;20.40;9.35;;;3.10;99.90;;;;;;6179043;23;20068;-77
2023/12/05 02:05:57;;;;;;;20.02;9.88;;;3.10;99.90;;;;;;6179484;23;20526;-77
2023/12/05 02:08:26;;;;;;;19.20;9.02;;;3.10;99.90;;;;;;6178799;23;20009;-77
2023/12/05 02:10:52;;;;;;;19.85;9.38;;;3.10;99.90;;;;;;6179640;23;20340;-77
2023/12/05 02:13:18;;;;;;;17.08;9.02;;;3.10;99.90;;;;;;6180634;23;20155;-77
2023/12/05 02:15:43;;;;;;;20.15;9.90;;;3.10;99.90;;;;;;6182413;23;20009;-78
2023/12/05 02:18:17;;;;;;;20.38;9.38;;;3.10;99.90;;;;;;6183247;23;20320;-78
2023/12/05 02:20:55;;;;;;;21.70;10.30;;;3.10;99.90;;;;;;6182223;23;20435;-77
2023/12/05 02:23:58;;;;;;;19.52;8.73;;;3.10;99.90;;;;;;6183432;23;20028;-77
2023/12/05 02:26:43;;;;;;;18.63;9.13;;;3.10;99.90;;;;;;6181108;23;20355;-77
2023/12/05 02:29:08;;;;;;;21.55;8.82;;;3.00;99.90;;;;;;6178117;23;20029;-76
2023/12/05 02:31:34;;;;;;;19.25;9.63;;;3.00;99.90;;;;;;6183621;23;20071;-78
2023/12/05 02:34:00;;;;;;;17.98;8.73;;;3.00;99.90;;;;;;6180430;23;20021;-78
2023/12/05 02:36:37;;;;;;;18.90;9.35;;;3.00;99.90;;;;;;6182102;23;20013;-77
2023/12/05 02:39:18;;;;;;;16.40;7.95;;;3.00;99.90;;;;;;6181118;23;20072;-77
2023/12/05 02:41:54;;;;;;;16.20;8.13;;;3.00;99.90;;;;;;6182297;23;20017;-76
2023/12/05 02:44:23;;;;;;;17.17;8.60;;;3.00;99.90;;;;;;6181059;23;20339;-77
2023/12/05 02:46:49;;;;;;;13.75;6.22;;;3.00;99.90;;;;;;6181399;23;20539;-78
2023/12/05 02:49:16;;;;;;;18.48;8.65;;;3.00;99.90;;;;;;6179298;23;20435;-78
2023/12/05 02:51:42;;;;;;;15.70;7.95;;;3.00;99.90;;;;;;6180847;23;20021;-77
2023/12/05 02:54:07;;;;;;;15.85;7.53;;;2.90;99.90;;;;;;6178316;23;20063;-78
2023/12/05 02:56:36;;;;;;;18.27;8.75;;;3.00;99.90;;;;;;6180894;23;20005;-77
2023/12/05 02:59:02;;;;;;;15.95;7.60;;;3.00;99.90;;;;;;6177924;23;20480;-77
2023/12/05 03:01:28;;;;;;;17.17;8.00;;;2.90;99.90;;;;;;6182054;23;20037;-77
2023/12/05 03:03:54;;;;;;;16.98;8.70;;;3.00;99.90;;;;;;6182972;23;20061;-76
2023/12/05 03:06:19;;;;;;;18.13;8.07;;;3.00;99.90;;;;;;6186022;23;20682;-77
2023/12/05 03:08:45;;;;;;;15.38;7.43;;;2.90;99.90;;;;;;6183849;23;20013;-77
2023/12/05 03:11:11;;;;;;;16.85;7.80;;;2.90;99.90;;;;;;6181528;23;20028;-78
2023/12/05 03:13:40;;;;;;;20.38;8.75;;;2.90;99.90;;;;;;6184459;23;20009;-80
2023/12/05 03:16:07;;;;;;;15.68;7.07;;;3.00;99.90;;;;;;6182716;23;20024;-77
2023/12/05 03:18:32;;;;;;;17.77;7.55;;;3.00;99.90;;;;;;6183653;23;20005;-78
2023/12/05 03:20:58;;;;;;;13.95;6.78;;;3.00;99.90;;;;;;6182561;23;20482;-77
2023/12/05 03:23:23;;;;;;;15.10;7.47;;;2.90;99.90;;;;;;6183458;23;20044;-77
2023/12/05 03:25:49;;;;;;;16.98;7.70;;;3.00;99.90;;;;;;6179378;23;20179;-77
2023/12/05 03:28:15;;;;;;;21.52;8.50;;;2.90;99.90;;;;;;6184804;23;20029;-77
2023/12/05 03:30:40;;;;;;;20.35;9.43;;;3.00;99.90;;;;;;6187415;23;20077;-78
2023/12/05 03:33:06;;;;;;;23.35;9.80;;;2.90;99.90;;;;;;6184935;23;20006;-77
2023/12/05 03:35:31;;;;;;;18.23;8.63;;;3.00;99.90;;;;;;6186314;23;20017;-77
2023/12/05 03:37:57;;;;;;;18.73;8.75;;;2.90;99.90;;;;;;6180602;23;20013;-75
2023/12/05 03:40:22;;;;;;;17.40;7.63;;;2.90;99.90;;;;;;6183656;23;20017;-77
2023/12/05 03:42:48;;;;;;;16.73;8.05;;;2.90;99.90;;;;;;6179421;23;20024;-76
2023/12/05 03:45:13;;;;;;;15.30;7.15;;;2.90;99.90;;;;;;6181753;23;20016;-77
2023/12/05 03:47:39;;;;;;;16.25;6.90;;;2.90;99.90;;;;;;6180844;23;20091;-78
2023/12/05 03:50:05;;;;;;;14.60;7.43;;;2.90;99.90;;;;;;6180537;23;20025;-76
2023/12/05 03:52:31;;;;;;;14.88;7.10;;;2.90;99.90;;;;;;6183696;23;20005;-76
2023/12/05 03:54:56;;;;;;;12.75;6.65;;;2.90;99.90;;;;;;6183005;23;20009;-76
2023/12/05 03:57:22;;;;;;;15.85;6.88;;;2.90;99.90;;;;;;6184640;23;20025;-78
2023/12/05 03:59:47;;;;;;;15.27;7.65;;;2.90;99.90;;;;;;6184086;23;20055;-78
2023/12/05 04:02:13;;;;;;;14.13;6.78;;;2.90;99.90;;;;;;6181722;23;20041;-77
2023/12/05 04:04:39;;;;;;;15.35;7.35;;;2.90;99.90;;;;;;6184935;23;20016;-78
2023/12/05 04:07:04;;;;;;;15.95;7.90;;;2.90;99.90;;;;;;6179863;23;20020;-77
2023/12/05 04:09:30;;;;;;;17.00;7.95;;;2.90;99.90;;;;;;6180025;23;20462;-77
2023/12/05 04:11:56;;;;;;;16.52;7.90;;;2.90;99.90;;;;;;6182833;23;20017;-76
2023/12/05 04:14:21;;;;;;;13.50;6.72;;;2.80;99.90;;;;;;6185716;23;20650;-80
2023/12/05 04:16:47;;;;;;;18.42;8.13;;;2.90;99.90;;;;;;6183451;23;20068;-78
2023/12/05 04:19:12;;;;;;;14.55;7.55;;;2.90;99.90;;;;;;6182577;23;20012;-77
2023/12/05 04:21:38;;;;;;;15.20;7.18;;;2.80;99.90;;;;;;6185624;23;20072;-78
2023/12/05 04:24:06;;;;;;;13.77;7.50;;;2.80;99.90;;;;;;6184411;23;20037;-78
2023/12/05 04:26:31;;;;;;;14.85;7.88;;;2.80;99.90;;;;;;6185574;23;20013;-78
2023/12/05 04:28:57;;;;;;;14.35;7.20;;;2.80;99.90;;;;;;6184989;23;20013;-78
2023/12/05 04:31:26;;;;;;;17.45;8.90;;;2.80;99.90;;;;;;6184419;23;20408;-78
2023/12/05 04:33:53;;;;;;;16.70;8.23;;;2.80;99.90;;;;;;6183997;23;20005;-78
2023/12/05 04:36:18;;;;;;;14.43;7.35;;;2.80;99.90;;;;;;6185180;23;20028;-77
2023/12/05 04:38:44;;;;;;;17.23;7.68;;;2.80;99.90;;;;;;6180370;23;20017;-76
2023/12/05 04:41:09;;;;;;;17.77;7.15;;;2.80;99.90;;;;;;6180185;23;20017;-76
2023/12/05 04:43:35;;;;;;;14.20;7.35;;;2.80;99.90;;;;;;6183215;23;20338;-77
2023/12/05 04:46:00;;;;;;;13.57;7.18;;;2.70;99.90;;;;;;6180647;23;20347;-77
2023/12/05 04:48:27;;;;;;;18.30;8.38;;;2.70;99.90;;;;;;6181536;23;20092;-78
2023/12/05 04:50:53;;;;;;;16.70;7.28;;;2.70;99.90;;;;;;6183986;23;20024;-78
2023/12/05 04:53:18;;;;;;;16.75;7.78;;;2.70;99.90;;;;;;6183159;23;20416;-77
2023/12/05 04:55:44;;;;;;;14.20;6.70;;;2.70;99.90;;;;;;6182524;23;20013;-77
2023/12/05 04:58:10;;;;;;;13.52;6.72;;;2.70;99.90;;;;;;6180562;23;20020;-77
2023/12/05 05:00:36;;;;;;;14.02;6.60;;;2.70;99.90;;;;;;6184080;23;20049;-77
2023/12/05 05:03:02;;;;;;;14.40;6.72;;;2.70;99.90;;;;;;6180661;23;20100;-78
2023/12/05 05:05:27;;;;;;;14.35;7.53;;;2.70;99.90;;;;;;6183062;23;20559;-78
2023/12/05 05:07:53;;;;;;;14.57;6.60;;;2.70;99.90;;;;;;6179273;23;20023;-76
2023/12/05 05:10:19;;;;;;;12.20;6.72;;;2.70;99.90;;;;;;6179733;23;20013;-77
2023/12/05 05:12:44;;;;;;;11.45;5.88;;;2.70;99.90;;;;;;6182315;23;20013;-77
2023/12/05 05:15:10;;;;;;;12.27;6.68;;;2.60;99.90;;;;;;6176779;23;20012;-77
2023/12/05 05:17:35;;;;;;;14.30;6.85;;;2.70;99.90;;;;;;6179853;23;20439;-76
2023/12/05 05:20:01;;;;;;;13.98;6.80;;;2.70;99.90;;;;;;6176792;23;20103;-76
2023/12/05 05:22:27;;;;;;;15.48;6.97;;;2.70;99.90;;;;;;6180137;23;20893;-76
2023/12/05 05:24:52;;;;;;;15.25;6.55;;;2.60;99.90;;;;;;6178855;23;20059;-77
2023/12/05 05:27:18;;;;;;;16.05;6.93;;;2.60;99.90;;;;;;6177599;23;20013;-77
2023/12/05 05:29:44;;;;;;;15.45;6.10;;;2.60;99.90;;;;;;6179557;23;20020;-75
2023/12/05 05:32:09;;;;;;;13.90;6.50;;;2.60;99.90;;;;;;6177086;23;20008;-78
2023/12/05 05:34:35;;;;;;;17.13;7.05;;;2.60;99.90;;;;;;6180365;23;20005;-79
2023/12/05 05:37:01;;;;;;;16.13;6.65;;;2.60;99.90;;;;;;6176409;23;20017;-77
2023/12/05 05:39:26;;;;;;;12.30;5.97;;;2.60;99.90;;;;;;6181080;23;20009;-76
2023/12/05 05:41:52;;;;;;;10.40;5.10;;;2.60;99.90;;;;;;6155200;22;20372;-73
2023/12/05 05:44:18;;;;;;;11.40;5.60;;;2.50;99.90;;;;;;6175284;23;20084;-74
2023/12/05 05:46:44;;;;;;;12.60;6.18;;;2.50;99.90;;;;;;6178547;23;20005;-73
2023/12/05 05:49:09;;;;;;;12.73;6.18;;;2.50;99.90;;;;;;6175640;23;20012;-75
2023/12/05 05:51:35;;;;;;;12.32;5.03;;;2.60;99.90;;;;;;6178807;23;20112;-74
2023/12/05 05:54:00;;;;;;;9.93;4.97;;;2.60;99.90;;;;;;6174629;23;20084;-75
2023/12/05 05:56:26;;;;;;;12.05;5.25;;;2.60;99.90;;;;;;6174938;23;20068;-74
2023/12/05 05:58:51;;;;;;;11.50;5.63;;;2.50;99.90;;;;;;6174411;23;20015;-72
2023/12/05 06:01:17;;;;;;;11.05;5.88;;;2.50;99.90;;;;;;6173837;23;20009;-71
2023/12/05 06:03:44;;;;;;;11.20;4.78;;;2.50;99.90;;;;;;6174636;23;20009;-72
2023/12/05 06:06:09;;;;;;;11.55;5.53;;;2.50;99.90;;;;;;6173273;23;20044;-74
2023/12/05 06:08:35;;;;;;;10.43;4.70;;;2.50;99.90;;;;;;6175802;23;20526;-73
2023/12/05 06:11:01;;;;;;;10.20;5.43;;;2.50;99.90;;;;;;6174134;23;20047;-73
2023/12/05 06:13:26;;;;;;;11.88;5.63;;;2.60;99.90;;;;;;6176279;23;20009;-72
2023/12/05 06:15:52;;;;;;;11.65;5.32;;;2.50;99.90;;;;;;6173784;23;20063;-73
2023/12/05 06:18:18;;;;;;;12.90;5.72;;;2.50;99.90;;;;;;6175616;23;20025;-74
2023/12/05 06:20:43;;;;;;;10.50;4.65;;;2.50;99.90;;;;;;6174009;23;20017;-74
2023/12/05 06:23:09;;;;;;;12.25;5.97;;;2.60;99.90;;;;;;6172268;23;20386;-73
2023/12/05 06:25:35;;;;;;;10.60;5.28;;;2.50;99.90;;;;;;6175105;23;20009;-73
2023/12/05 06:28:00;;;;;;;12.30;5.85;;;2.50;99.90;;;;;;6171435;23;20297;-74
2023/12/05 06:30:26;;;;;;;12.30;6.15;;;2.50;99.90;;;;;;6173331;23;20013;-73
2023/12/05 06:32:52;;;;;;;11.80;5.38;;;2.50;99.90;;;;;;6174296;23;20083;-73
2023/12/05 06:35:17;;;;;;;11.98;5.50;;;2.60;99.90;;;;;;6174584;23;20012;-73
2023/12/05 06:37:43;;;;;;;15.38;6.90;;;2.60;99.90;;;;;;6176804;23;20041;-72
2023/12/05 06:40:09;;;;;;;16.10;6.60;;;2.60;99.90;;;;;;6174510;23;20091;-73
2023/12/05 06:42:35;;;;;;;15.20;7.32;;;2.60;99.90;;;;;;6175967;23;20021;-73
2023/12/05 06:45:04;;;;;;;16.23;6.68;;;2.60;99.90;;;;;;6176446;23;20064;-73
2023/12/05 06:47:30;;;;;;;15.82;7.20;;;2.60;99.90;;;;;;6177687;23;20146;-74
2023/12/05 06:50:00;;;;;;;15.43;7.35;;;2.60;99.90;;;;;;6174708;23;20047;-72
2023/12/05 06:52:25;;;;;;;18.98;7.82;;;2.60;99.90;;;;;;6177312;23;20011;-73
2023/12/05 06:54:51;;;;;;;16.67;7.88;;;2.60;99.90;;;;;;6174625;23;20016;-73
2023/12/05 06:57:17;;;;;;;18.02;7.93;;;2.60;99.90;;;;;;6175401;23;20019;-72
2023/12/05 06:59:42;;;;;;;16.58;7.57;;;2.60;99.90;;;;;;6176432;23;20033;-73
2023/12/05 07:02:08;;;;;;;17.63;8.02;;;2.60;99.90;;;;;;6174073;23;20043;-74
2023/12/05 07:04:34;;;;;;;20.17;9.15;;;2.60;99.90;;;;;;6177471;23;20043;-74
2023/12/05 07:06:59;;;;;;;18.48;7.60;;;2.60;99.90;;;;;;6173592;23;20148;-73
2023/12/05 07:09:25;;;;;;;18.08;8.23;;;2.60;99.90;;;;;;6176851;23;20598;-73
2023/12/05 07:11:51;;;;;;;17.02;7.28;;;2.60;99.90;;;;;;6174881;23;20738;-75
2023/12/05 07:14:16;;;;;;;16.17;7.18;;;2.60;99.90;;;;;;6177638;23;20005;-73
2023/12/05 07:16:42;;;;;;;18.55;7.90;;;2.60;99.90;;;;;;6177099;23;20512;-73
2023/12/05 07:19:07;;;;;;;18.00;7.88;;;2.60;99.90;;;;;;6174390;23;20451;-73
2023/12/05 07:21:33;;;;;;;17.58;7.28;;;2.60;99.90;;;;;;6174865;23;20346;-73
2023/12/05 07:23:59;;;;;;;19.60;9.07;;;2.60;99.90;;;;;;6175828;23;20019;-72
2023/12/05 07:26:24;;;;;;;18.25;7.82;;;2.60;99.90;;;;;;6175430;23;20013;-72
2023/12/05 07:28:50;;;;;;;17.92;8.15;;;2.70;99.90;;;;;;6173467;23;20013;-73
2023/12/05 07:31:17;;;;;;;17.60;8.35;;;2.60;99.90;;;;;;6176737;23;20016;-73
2023/12/05 07:33:43;;;;;;;21.73;8.27;;;2.70;99.90;;;;;;6175090;23;20006;-73
2023/12/05 07:36:09;;;;;;;18.52;8.25;;;2.60;99.90;;;;;;6174021;23;20542;-72
2023/12/05 07:38:34;;;;;;;17.52;7.95;;;2.70;99.90;;;;;;6176527;23;20017;-73
2023/12/05 07:41:00;;;;;;;21.10;8.57;;;2.60;99.90;;;;;;6175175;23;20017;-72
2023/12/05 07:43:26;;;;;;;21.58;9.73;;;2.70;99.90;;;;;;6175045;23;20032;-73
2023/12/05 07:45:51;;;;;;;23.00;9.32;;;2.60;99.90;;;;;;6173951;23;20009;-73
2023/12/05 07:48:17;;;;;;;19.48;9.00;;;2.70;99.90;;;;;;6176626;23;20036;-72
2023/12/05 07:50:43;;;;;;;18.50;8.70;;;2.70;99.90;;;;;;6176464;23;20581;-73
2023/12/05 07:53:09;;;;;;;20.55;9.15;;;2.70;99.90;;;;;;6175595;23;20013;-72
2023/12/05 07:55:34;;;;;;;17.65;8.65;;;2.70;99.90;;;;;;6176820;23;20009;-73
2023/12/05 07:58:00;;;;;;;21.67;9.50;;;2.70;99.90;;;;;;6176226;23;20092;-75
2023/12/05 08:00:26;;;;;;;22.83;8.90;;;2.70;99.90;;;;;;6176320;23;20025;-73
2023/12/05 08:02:51;;;;;;;20.35;8.45;;;2.70;99.90;;;;;;6175948;23;20530;-71
2023/12/05 08:05:17;;;;;;;19.67;8.30;;;2.70;99.90;;;;;;6175553;23;20008;-71
2023/12/05 08:07:42;;;;;;;21.23;8.75;;;2.70;99.90;;;;;;6174637;23;20520;-73
2023/12/05 08:10:09;;;;;;;19.13;8.38;;;2.70;99.90;;;;;;6173949;23;20466;-73
2023/12/05 08:12:35;;;;;;;21.63;9.07;;;2.80;99.90;;;;;;6175501;23;20020;-73
2023/12/05 08:15:03;;;;;;;16.67;7.55;;;2.70;99.90;;;;;;6174694;23;20005;-73
2023/12/05 08:17:29;;;;;;;20.48;9.15;;;2.70;99.90;;;;;;6175805;23;20013;-73
2023/12/05 08:19:54;;;;;;;20.65;8.88;;;2.70;99.90;;;;;;6174590;23;20333;-73
2023/12/05 08:22:21;;;;;;;19.98;8.13;;;2.70;99.90;;;;;;6176043;23;20016;-73
2023/12/05 08:24:47;;;;;;;20.08;8.15;;;2.70;99.90;;;;;;6176347;23;20510;-72
2023/12/05 08:27:14;;;;;;;16.83;8.18;;;2.70;99.90;;;;;;6173732;23;20016;-72
2023/12/05 08:29:40;;;;;;;20.10;8.77;;;2.80;99.90;;;;;;6174104;23;20107;-73
2023/12/05 08:32:07;;;;;;;18.10;7.90;;;2.80;99.90;;;;;;6175636;23;20427;-73
2023/12/05 08:34:33;;;;;;;17.67;7.72;;;2.80;99.90;;;;;;6175308;23;20355;-73
2023/12/05 08:36:59;;;;;;;23.70;8.73;;;2.80;99.90;;;;;;6174734;23;20079;-74
2023/12/05 08:39:25;;;;;;;22.77;9.13;;;2.80;99.90;;;;;;6175984;23;20021;-73
2023/12/05 08:41:51;;;;;;;18.83;7.80;;;2.80;99.90;;;;;;6172978;23;20353;-75
2023/12/05 08:44:17;;;;;;;16.67;8.25;;;2.80;99.90;;;;;;6176555;23;20012;-73
2023/12/05 08:46:42;;;;;;;17.63;7.97;;;2.80;99.90;;;;;;6175852;23;20351;-73
2023/12/05 08:49:08;;;;;;;20.50;9.40;;;2.80;99.90;;;;;;6174803;23;20096;-72
2023/12/05 08:51:33;;;;;;;16.88;7.45;;;2.80;99.90;;;;;;6174212;23;20021;-73
2023/12/05 08:53:59;;;;;;;19.08;8.40;;;2.90;99.90;;;;;;6175111;23;20021;-73
2023/12/05 08:56:25;;;;;;;19.88;9.23;;;2.80;99.90;;;;;;6174698;23;20019;-73
2023/12/05 08:58:51;;;;;;;18.33;8.30;;;2.80;99.90;;;;;;6174604;23;20039;-73
2023/12/05 09:01:17;;;;;;;17.27;7.10;;;2.70;99.90;;;;;;6173965;23;20044;-72
2023/12/05 09:03:42;;;;;;;16.30;6.80;;;2.80;99.90;;;;;;6175668;23;20013;-73
2023/12/05 09:06:08;;;;;;;16.88;8.02;;;2.80;99.90;;;;;;6174776;23;20096;-74
2023/12/05 09:08:34;;;;;;;17.00;7.53;;;2.80;99.90;;;;;;6175814;23;20088;-74
2023/12/05 09:11:00;;;;;;;17.05;8.02;;;2.80;99.90;;;;;;6173857;23;20081;-73
2023/12/05 09:13:26;;;;;;;14.57;6.82;;;2.80;99.90;;;;;;6175389;23;20021;-72
2023/12/05 09:15:51;;;;;;;15.85;7.50;;;2.70;99.90;;;;;;6172469;23;20027;-75
2023/12/05 09:18:17;;;;;;;16.45;7.25;;;2.70;99.90;;;;;;6175625;23;20105;-73
2023/12/05 09:20:42;;;;;;;16.73;7.32;;;2.70;99.90;;;;;;6175271;23;20012;-73
2023/12/05 09:23:08;;;;;;;17.27;7.95;;;2.70;99.90;;;;;;6172279;23;20021;-73
2023/12/05 09:25:33;;;;;;;16.05;6.85;;;2.70;99.90;;;;;;6174774;23;20017;-72
2023/12/05 09:27:59;;;;;;;15.07;7.03;;;2.70;99.90;;;;;;6174379;23;20544;-72
2023/12/05 09:30:25;;;;;;;16.33;7.35;;;2.80;99.90;;;;;;6175378;23;20083;-73
2023/12/05 09:32:50;;;;;;;16.38;7.68;;;2.70;99.90;;;;;;6174459;23;20096;-73
2023/12/05 09:35:16;;;;;;;13.43;6.63;;;2.70;99.90;;;;;;6175584;23;20740;-73
2023/12/05 09:37:42;;;;;;;13.80;6.82;;;2.70;99.90;;;;;;6173608;23;20494;-73
2023/12/05 09:40:09;;;;;;;22.98;8.55;;;2.70;99.90;;;;;;6174374;23;20009;-72
2023/12/05 09:42:35;;;;;;;14.80;7.65;;;2.70;99.90;;;;;;6173784;23;20031;-73
2023/12/05 09:45:04;;;;;;;19.38;7.63;;;2.80;99.90;;;;;;6174677;23;20686;-74
2023/12/05 09:47:30;;;;;;;19.63;7.72;;;2.80;99.90;;;;;;6173175;23;20454;-73
2023/12/05 09:49:56;;;;;;;17.98;7.88;;;2.80;99.90;;;;;;6174162;23;20064;-74
2023/12/05 09:52:22;;;;;;;18.02;7.47;;;2.90;99.90;;;;;;6173579;23;20020;-73
2023/12/05 09:54:50;;;;;;;20.83;8.30;;;2.80;99.90;;;;;;6173934;23;20024;-72
2023/12/05 09:57:16;;;;;;;16.10;7.70;;;2.80;99.90;;;;;;6175006;23;20091;-74
2023/12/05 09:59:42;;;;;;;19.30;8.02;;;2.80;99.90;;;;;;6175856;23;20013;-72
2023/12/05 10:02:09;;;;;;;16.85;8.20;;;2.80;99.90;;;;;;6174603;23;20103;-73
2023/12/05 10:04:42;;;;;;;19.92;8.48;;;2.80;99.90;;;;;;6175947;23;20005;-73
2023/12/05 10:07:11;;;;;;;17.48;8.23;;;2.80;99.90;;;;;;6174435;23;20025;-73
2023/12/05 10:09:39;;;;;;;23.05;8.57;;;2.80;99.90;;;;;;6175214;23;20032;-74
2023/12/05 10:12:05;;;;;;;20.27;8.63;;;2.80;99.90;;;;;;6172721;23;20020;-73
2023/12/05 10:14:31;;;;;;;16.63;8.40;;;2.90;99.90;;;;;;6175537;23;20011;-73
2023/12/05 10:16:57;;;;;;;26.60;10.55;;;2.90;99.90;;;;;;6174177;23;20084;-75
2023/12/05 10:19:24;;;;;;;24.92;9.77;;;2.90;99.90;;;;;;6175979;23;20052;-73
2023/12/05 10:21:54;;;;;;;17.67;8.43;;;2.90;99.90;;;;;;6174868;23;20078;-74
2023/12/05 10:24:21;;;;;;;19.67;9.07;;;2.90;99.90;;;;;;6175975;23;20009;-73
2023/12/05 10:26:47;;;;;;;19.23;8.10;;;2.90;99.90;;;;;;6175699;23;20076;-74
2023/12/05 10:29:13;;;;;;;26.25;9.18;;;2.90;99.90;;;;;;6169482;23;20036;-74
2023/12/05 10:31:40;;;;;;;22.33;9.88;;;2.90;99.90;;;;;;6173253;23;20032;-74
2023/12/05 10:34:06;;;;;;;18.77;8.27;;;3.00;99.90;;;;;;6170712;23;20107;-75
2023/12/05 10:36:32;;;;;;;21.83;9.50;;;3.00;99.90;;;;;;6174542;23;20104;-73
2023/12/05 10:38:58;;;;;;;20.75;8.23;;;3.10;99.90;;;;;;6170893;23;20103;-74
2023/12/05 10:41:24;;;;;;;26.02;9.23;;;3.00;99.90;;;;;;6172907;23;20024;-72
2023/12/05 10:43:52;;;;;;;21.08;8.90;;;3.10;99.90;;;;;;6174434;23;20017;-73
2023/12/05 10:46:17;;;;;;;24.92;9.50;;;3.00;99.90;;;;;;6174255;23;20019;-73
2023/12/05 10:48:47;;;;;;;18.98;8.48;;;3.00;99.90;;;;;;6172782;23;20088;-73
2023/12/05 10:51:13;;;;;;;25.67;9.25;;;3.00;99.90;;;;;;6171721;23;20032;-73
2023/12/05 10:53:39;;;;;;;21.23;9.98;;;3.00;99.90;;;;;;6174533;23;20013;-73
2023/12/05 10:56:15;;;;;;;21.40;8.88;;;3.00;99.90;;;;;;6171321;23;20040;-74
2023/12/05 10:58:42;;;;;;;24.80;10.25;;;3.10;99.90;;;;;;6170732;23;20028;-73
2023/12/05 11:01:12;;;;;;;25.98;9.70;;;3.10;99.90;;;;;;6173009;23;20013;-74
2023/12/05 11:03:38;;;;;;;23.80;10.35;;;3.00;99.90;;;;;;6174650;23;20059;-73
2023/12/05 11:06:08;;;;;;;21.23;9.45;;;3.10;99.90;;;;;;6173118;23;20126;-75
2023/12/05 11:08:36;;;;;;;21.77;8.57;;;3.00;99.90;;;;;;6174270;23;20040;-74
2023/12/05 11:11:03;;;;;;;27.08;10.18;;;3.00;99.90;;;;;;6173138;23;20645;-75
2023/12/05 11:13:34;;;;;;;23.23;9.48;;;3.00;99.90;;;;;;6174092;23;20522;-73
2023/12/05 11:16:08;;;;;;;22.83;9.65;;;3.10;99.90;;;;;;6170788;23;20021;-73
2023/12/05 11:18:35;;;;;;;27.08;11.10;;;3.00;99.90;;;;;;6172382;23;20601;-72
2023/12/05 11:21:23;;;;;;;26.15;9.88;;;3.10;99.90;;;;;;6172661;23;20093;-73
2023/12/05 11:24:26;;;;;;;23.40;10.98;;;3.10;99.90;;;;;;6175363;23;20312;-73
2023/12/05 11:27:31;;;;;;;25.17;9.80;;;3.10;99.90;;;;;;6174382;23;20013;-74
2023/12/05 11:30:24;;;;;;;24.45;10.73;;;3.10;99.90;;;;;;6174345;23;20045;-72
2023/12/05 11:33:14;;;;;;;23.60;10.40;;;3.10;99.90;;;;;;6172681;23;20096;-73
2023/12/05 11:36:05;;;;;;;20.75;10.18;;;3.10;99.90;;;;;;6176098;23;20386;-75
2023/12/05 11:38:31;;;;;;;24.23;10.02;;;3.10;99.90;;;;;;6175440;23;20013;-75
2023/12/05 11:46:08;;;;;;;25.70;9.48;;;3.00;99.90;;;;;;6159292;22;20028;-77
2023/12/05 11:48:33;;;;;;;23.70;9.43;;;3.10;99.90;;;;;;6177818;23;20068;-76
2023/12/05 11:50:59;;;;;;;24.30;11.15;;;3.10;99.90;;;;;;6178726;22;20025;-76
2023/12/05 11:53:25;;;;;;;27.25;11.05;;;3.00;99.90;;;;;;6179638;23;20043;-78
2023/12/05 11:55:51;;;;;;;25.73;10.50;;;3.10;99.90;;;;;;6178382;23;20009;-78
2023/12/05 11:58:28;;;;;;;31.73;11.98;;;3.00;99.90;;;;;;6178676;23;20017;-77
2023/12/05 12:01:04;;;;;;;31.52;11.95;;;3.00;99.90;;;;;;6175900;23;20033;-78
2023/12/05 12:03:45;;;;;;;27.00;10.90;;;3.00;99.90;;;;;;6178597;23;20135;-80
2023/12/05 12:06:11;;;;;;;26.13;10.90;;;3.00;99.90;;;;;;6175747;23;20068;-77
2023/12/05 12:08:37;;;;;;;27.35;11.43;;;3.10;99.90;;;;;;6180334;23;20091;-78
2023/12/05 12:11:03;;;;;;;26.20;11.10;;;3.00;99.90;;;;;;6175932;23;20020;-76
2023/12/05 12:13:29;;;;;;;23.00;10.23;;;3.00;99.90;;;;;;6178511;23;20020;-77
2023/12/05 12:15:55;;;;;;;25.35;9.80;;;3.00;99.90;;;;;;6176682;23;20485;-77
2023/12/05 12:18:27;;;;;;;23.33;9.13;;;3.10;99.90;;;;;;6180369;23;20017;-77
2023/12/05 12:20:53;;;;;;;22.63;10.18;;;3.00;99.90;;;;;;6178991;23;20075;-79
2023/12/05 12:23:19;;;;;;;21.17;9.63;;;3.00;99.90;;;;;;6179530;23;20466;-78
2023/12/05 12:25:54;;;;;;;27.27;9.60;;;3.00;99.90;;;;;;6179357;23;20499;-78
2023/12/05 12:28:30;;;;;;;22.65;9.68;;;3.10;99.90;;;;;;6179206;23;20009;-79
2023/12/05 12:31:00;;;;;;;20.38;9.10;;;3.10;99.90;;;;;;6177358;23;20131;-79
2023/12/05 12:33:39;;;;;;;23.08;9.50;;;3.10;99.90;;;;;;6175743;23;20032;-77
2023/12/05 12:36:09;;;;;;;22.52;9.23;;;3.10;99.90;;;;;;6177483;23;20025;-77
2023/12/05 12:38:36;;;;;;;27.10;10.30;;;3.00;99.90;;;;;;6177298;23;20009;-78
2023/12/05 12:41:02;;;;;;;25.02;9.93;;;3.00;99.90;;;;;;6176650;23;20017;-76
2023/12/05 12:43:29;;;;;;;24.75;10.18;;;3.00;99.90;;;;;;6176278;23;20009;-77
2023/12/05 12:45:54;;;;;;;21.63;9.32;;;2.90;99.90;;;;;;6176029;23;20710;-78
2023/12/05 12:48:20;;;;;;;24.42;9.90;;;2.90;99.90;;;;;;6178673;23;20009;-77
2023/12/05 12:50:46;;;;;;;24.02;9.73;;;2.90;99.90;;;;;;6176477;23;20048;-79